sensor_id;sensor_type;location;lat;lon;timestamp;pressure;altitude;pressure_sealevel;temperature;humidity
80198;BME280;69517;52.030;7.106;2023-04-20T00:00:56;101298.09;;;21.62;66.12
80198;BME280;69517;52.030;7.106;2023-04-20T00:03:22;101299.97;;;21.60;66.18
80198;BME280;69517;52.030;7.106;2023-04-20T00:05:50;101289.34;;;21.61;66.13
80198;BME280;69517;52.030;7.106;2023-04-20T00:08:16;101290.47;;;21.57;66.21
80198;BME280;69517;52.030;7.106;2023-04-20T00:10:43;101276.56;;;21.55;66.13
80198;BME280;69517;52.030;7.106;2023-04-20T00:13:09;101277.03;;;21.62;65.94
80198;BME280;69517;52.030;7.106;2023-04-20T00:15:36;101268.59;;;21.57;66.25
80198;BME280;69517;52.030;7.106;2023-04-20T00:18:03;101269.53;;;21.56;66.20
80198;BME280;69517;52.030;7.106;2023-04-20T00:20:29;101277.41;;;21.56;66.13
80198;BME280;69517;52.030;7.106;2023-04-20T00:22:55;101267.75;;;21.56;66.02
80198;BME280;69517;52.030;7.106;2023-04-20T00:25:22;101270.53;;;21.53;66.04
80198;BME280;69517;52.030;7.106;2023-04-20T00:27:48;101259.09;;;21.54;66.15
80198;BME280;69517;52.030;7.106;2023-04-20T00:30:14;101265.88;;;21.58;65.87
80198;BME280;69517;52.030;7.106;2023-04-20T00:32:42;101251.31;;;21.53;65.93
80198;BME280;69517;52.030;7.106;2023-04-20T00:35:08;101248.69;;;21.53;66.01
80198;BME280;69517;52.030;7.106;2023-04-20T00:37:35;101248.75;;;21.51;66.09
80198;BME280;69517;52.030;7.106;2023-04-20T00:40:01;101246.13;;;21.51;65.99
80198;BME280;69517;52.030;7.106;2023-04-20T00:42:28;101245.28;;;21.51;65.95
80198;BME280;69517;52.030;7.106;2023-04-20T00:44:54;101239.25;;;21.49;66.05
80198;BME280;69517;52.030;7.106;2023-04-20T00:47:20;101232.31;;;21.48;66.16
80198;BME280;69517;52.030;7.106;2023-04-20T00:49:48;101225.38;;;21.47;66.13
80198;BME280;69517;52.030;7.106;2023-04-20T00:52:14;101218.22;;;21.49;66.00
80198;BME280;69517;52.030;7.106;2023-04-20T00:54:41;101219.28;;;21.46;66.07
80198;BME280;69517;52.030;7.106;2023-04-20T00:57:07;101209.69;;;21.45;66.10
80198;BME280;69517;52.030;7.106;2023-04-20T00:59:33;101207.91;;;21.45;66.16
80198;BME280;69517;52.030;7.106;2023-04-20T01:02:00;101200.94;;;21.44;66.00
80198;BME280;69517;52.030;7.106;2023-04-20T01:04:26;101186.09;;;21.43;66.06
80198;BME280;69517;52.030;7.106;2023-04-20T01:06:53;101190.34;;;21.46;65.97
80198;BME280;69517;52.030;7.106;2023-04-20T01:09:20;101184.41;;;21.42;65.97
80198;BME280;69517;52.030;7.106;2023-04-20T01:11:46;101175.66;;;21.42;66.00
80198;BME280;69517;52.030;7.106;2023-04-20T01:14:12;101172.19;;;21.41;66.10
80198;BME280;69517;52.030;7.106;2023-04-20T01:16:39;101173.97;;;21.41;66.05
80198;BME280;69517;52.030;7.106;2023-04-20T01:19:05;101170.59;;;21.39;66.03
80198;BME280;69517;52.030;7.106;2023-04-20T01:21:31;101163.56;;;21.39;66.06
80198;BME280;69517;52.030;7.106;2023-04-20T01:23:59;101166.06;;;21.41;66.01
80198;BME280;69517;52.030;7.106;2023-04-20T01:26:25;101160.09;;;21.39;65.98
80198;BME280;69517;52.030;7.106;2023-04-20T01:28:51;101149.56;;;21.39;65.91
80198;BME280;69517;52.030;7.106;2023-04-20T01:31:18;101149.66;;;21.37;66.18
80198;BME280;69517;52.030;7.106;2023-04-20T01:33:44;101153.97;;;21.38;66.13
80198;BME280;69517;52.030;7.106;2023-04-20T01:36:10;101151.44;;;21.37;66.08
80198;BME280;69517;52.030;7.106;2023-04-20T01:38:37;101134.91;;;21.35;66.13
80198;BME280;69517;52.030;7.106;2023-04-20T01:41:05;101135.75;;;21.35;66.02
80198;BME280;69517;52.030;7.106;2023-04-20T01:43:33;101127.84;;;21.35;65.96
80198;BME280;69517;52.030;7.106;2023-04-20T01:45:59;101121.75;;;21.35;66.00
80198;BME280;69517;52.030;7.106;2023-04-20T01:48:26;101124.38;;;21.35;65.92
80198;BME280;69517;52.030;7.106;2023-04-20T01:50:52;101124.50;;;21.33;65.95
80198;BME280;69517;52.030;7.106;2023-04-20T01:53:18;101119.22;;;21.33;65.93
80198;BME280;69517;52.030;7.106;2023-04-20T01:55:45;101115.75;;;21.33;65.95
80198;BME280;69517;52.030;7.106;2023-04-20T01:58:13;101113.13;;;21.33;65.87
80198;BME280;69517;52.030;7.106;2023-04-20T02:00:39;101105.22;;;21.33;65.95
80198;BME280;69517;52.030;7.106;2023-04-20T02:03:06;101107.94;;;21.31;66.00
80198;BME280;69517;52.030;7.106;2023-04-20T02:05:32;101110.59;;;21.31;65.91
80198;BME280;69517;52.030;7.106;2023-04-20T02:07:58;101103.53;;;21.32;65.85
80198;BME280;69517;52.030;7.106;2023-04-20T02:10:24;101105.41;;;21.30;65.96
80198;BME280;69517;52.030;7.106;2023-04-20T02:12:50;101100.06;;;21.31;65.90
80198;BME280;69517;52.030;7.106;2023-04-20T02:15:18;101107.09;;;21.31;65.96
80198;BME280;69517;52.030;7.106;2023-04-20T02:17:44;101106.34;;;21.29;65.89
80198;BME280;69517;52.030;7.106;2023-04-20T02:20:11;101102.06;;;21.28;65.93
80198;BME280;69517;52.030;7.106;2023-04-20T02:22:37;101092.25;;;21.30;65.83
80198;BME280;69517;52.030;7.106;2023-04-20T02:25:04;101093.19;;;21.29;65.91
80198;BME280;69517;52.030;7.106;2023-04-20T02:27:30;101089.75;;;21.28;65.80
80198;BME280;69517;52.030;7.106;2023-04-20T02:29:57;101086.28;;;21.28;65.90
80198;BME280;69517;52.030;7.106;2023-04-20T02:32:25;101080.25;;;21.26;65.90
80198;BME280;69517;52.030;7.106;2023-04-20T02:34:51;101074.06;;;21.27;65.93
80198;BME280;69517;52.030;7.106;2023-04-20T02:37:18;101071.59;;;21.24;65.94
80198;BME280;69517;52.030;7.106;2023-04-20T02:39:44;101075.75;;;21.28;65.88
80198;BME280;69517;52.030;7.106;2023-04-20T02:42:11;101073.31;;;21.25;65.89
80198;BME280;69517;52.030;7.106;2023-04-20T02:44:37;101068.88;;;21.25;65.89
80198;BME280;69517;52.030;7.106;2023-04-20T02:47:03;101080.34;;;21.24;65.88
80198;BME280;69517;52.030;7.106;2023-04-20T02:49:31;101076.88;;;21.24;65.87
80198;BME280;69517;52.030;7.106;2023-04-20T02:51:57;101083.72;;;21.26;65.78
80198;BME280;69517;52.030;7.106;2023-04-20T02:54:23;101085.69;;;21.23;65.83
80198;BME280;69517;52.030;7.106;2023-04-20T02:56:50;101079.41;;;21.25;65.89
80198;BME280;69517;52.030;7.106;2023-04-20T02:59:16;101078.47;;;21.26;65.75
80198;BME280;69517;52.030;7.106;2023-04-20T03:01:42;101092.66;;;21.24;65.87
80198;BME280;69517;52.030;7.106;2023-04-20T03:04:08;101085.06;;;21.19;65.80
80198;BME280;69517;52.030;7.106;2023-04-20T03:06:36;101078.09;;;21.18;66.03
80198;BME280;69517;52.030;7.106;2023-04-20T03:09:04;101077.91;;;21.21;65.84
80198;BME280;69517;52.030;7.106;2023-04-20T03:11:31;101078.94;;;21.19;65.79
80198;BME280;69517;52.030;7.106;2023-04-20T03:13:57;101071.06;;;21.19;65.77
80198;BME280;69517;52.030;7.106;2023-04-20T03:16:24;101066.66;;;21.19;65.79
80198;BME280;69517;52.030;7.106;2023-04-20T03:18:50;101078.56;;;21.25;65.66
80198;BME280;69517;52.030;7.106;2023-04-20T03:21:16;101065.78;;;21.33;65.37
80198;BME280;69517;52.030;7.106;2023-04-20T03:23:44;101069.97;;;21.35;65.24
80198;BME280;69517;52.030;7.106;2023-04-20T03:26:10;101054.66;;;21.42;65.14
80198;BME280;69517;52.030;7.106;2023-04-20T03:28:36;101062.06;;;21.50;64.84
80198;BME280;69517;52.030;7.106;2023-04-20T03:31:03;101061.75;;;21.54;64.75
80198;BME280;69517;52.030;7.106;2023-04-20T03:33:30;101047.47;;;21.58;64.66
80198;BME280;69517;52.030;7.106;2023-04-20T03:35:56;101047.28;;;21.61;64.49
80198;BME280;69517;52.030;7.106;2023-04-20T03:38:23;101045.19;;;21.66;64.48
80198;BME280;69517;52.030;7.106;2023-04-20T03:40:50;101050.34;;;21.68;64.48
80198;BME280;69517;52.030;7.106;2023-04-20T03:43:16;101045.72;;;21.71;64.28
80198;BME280;69517;52.030;7.106;2023-04-20T03:45:43;101047.31;;;21.74;64.31
80198;BME280;69517;52.030;7.106;2023-04-20T03:48:09;101054.19;;;21.76;64.21
80198;BME280;69517;52.030;7.106;2023-04-20T03:50:35;101037.31;;;21.79;64.14
80198;BME280;69517;52.030;7.106;2023-04-20T03:53:01;101032.81;;;21.81;64.17
80198;BME280;69517;52.030;7.106;2023-04-20T03:55:28;101022.38;;;21.79;64.20
80198;BME280;69517;52.030;7.106;2023-04-20T03:57:55;101026.69;;;21.80;64.17
80198;BME280;69517;52.030;7.106;2023-04-20T04:00:21;101028.31;;;21.83;64.18
80198;BME280;69517;52.030;7.106;2023-04-20T04:02:48;101015.94;;;21.83;64.14
80198;BME280;69517;52.030;7.106;2023-04-20T04:05:15;101021.34;;;21.82;64.27
80198;BME280;69517;52.030;7.106;2023-04-20T04:07:41;101015.94;;;21.83;64.20
80198;BME280;69517;52.030;7.106;2023-04-20T04:10:09;101030.94;;;21.83;64.21
80198;BME280;69517;52.030;7.106;2023-04-20T04:12:35;101020.28;;;21.84;64.17
80198;BME280;69517;52.030;7.106;2023-04-20T04:15:03;101036.06;;;21.84;64.22
80198;BME280;69517;52.030;7.106;2023-04-20T04:17:30;101029.97;;;21.84;64.25
80198;BME280;69517;52.030;7.106;2023-04-20T04:19:56;101021.13;;;21.85;64.08
80198;BME280;69517;52.030;7.106;2023-04-20T04:22:22;101015.84;;;21.85;64.22
80198;BME280;69517;52.030;7.106;2023-04-20T04:24:48;101022.81;;;21.86;64.16
80198;BME280;69517;52.030;7.106;2023-04-20T04:27:16;101026.38;;;21.85;64.23
80198;BME280;69517;52.030;7.106;2023-04-20T04:29:42;101022.81;;;21.86;64.34
80198;BME280;69517;52.030;7.106;2023-04-20T04:32:10;101026.19;;;21.88;64.20
80198;BME280;69517;52.030;7.106;2023-04-20T04:34:37;101022.81;;;21.86;64.29
80198;BME280;69517;52.030;7.106;2023-04-20T04:37:03;101021.97;;;21.85;64.31
80198;BME280;69517;52.030;7.106;2023-04-20T04:39:29;101021.97;;;21.85;64.31
80198;BME280;69517;52.030;7.106;2023-04-20T04:41:56;101013.13;;;21.86;64.24
80198;BME280;69517;52.030;7.106;2023-04-20T04:44:22;101018.41;;;21.86;64.26
80198;BME280;69517;52.030;7.106;2023-04-20T04:46:50;101014.91;;;21.86;64.26
80198;BME280;69517;52.030;7.106;2023-04-20T04:49:17;101016.69;;;21.85;64.18
80198;BME280;69517;52.030;7.106;2023-04-20T04:51:44;101026.38;;;21.85;64.28
80198;BME280;69517;52.030;7.106;2023-04-20T04:54:11;101020.19;;;21.86;64.24
80198;BME280;69517;52.030;7.106;2023-04-20T04:56:37;101025.53;;;21.84;64.26
80198;BME280;69517;52.030;7.106;2023-04-20T04:59:04;101033.56;;;21.83;64.34
80198;BME280;69517;52.030;7.106;2023-04-20T05:01:30;101022.06;;;21.84;64.22
80198;BME280;69517;52.030;7.106;2023-04-20T05:03:56;101022.19;;;21.82;64.17
80198;BME280;69517;52.030;7.106;2023-04-20T05:06:24;101031.03;;;21.81;64.29
80198;BME280;69517;52.030;7.106;2023-04-20T05:08:50;101023.97;;;21.82;64.27
80198;BME280;69517;52.030;7.106;2023-04-20T05:11:16;101031.88;;;21.82;64.26
80198;BME280;69517;52.030;7.106;2023-04-20T05:13:43;101021.34;;;21.82;64.30
80198;BME280;69517;52.030;7.106;2023-04-20T05:16:09;101025.00;;;21.79;64.20
80198;BME280;69517;52.030;7.106;2023-04-20T05:18:35;101017.13;;;21.79;64.29
80198;BME280;69517;52.030;7.106;2023-04-20T05:21:02;101029.44;;;21.79;64.24
80198;BME280;69517;52.030;7.106;2023-04-20T05:23:29;101040.03;;;21.77;64.34
80198;BME280;69517;52.030;7.106;2023-04-20T05:25:56;101034.78;;;21.77;64.43
80198;BME280;69517;52.030;7.106;2023-04-20T05:28:22;101027.84;;;21.76;64.47
80198;BME280;69517;52.030;7.106;2023-04-20T05:30:48;101032.28;;;21.76;64.37
80198;BME280;69517;52.030;7.106;2023-04-20T05:33:14;101035.84;;;21.75;64.29
80198;BME280;69517;52.030;7.106;2023-04-20T05:35:41;101042.81;;;21.76;64.29
80198;BME280;69517;52.030;7.106;2023-04-20T05:38:07;101035.84;;;21.75;64.35
80198;BME280;69517;52.030;7.106;2023-04-20T05:40:34;101043.75;;;21.75;64.41
80198;BME280;69517;52.030;7.106;2023-04-20T05:43:01;101045.63;;;21.73;64.30
80198;BME280;69517;52.030;7.106;2023-04-20T05:45:27;101052.47;;;21.75;64.29
80198;BME280;69517;52.030;7.106;2023-04-20T05:47:53;101040.03;;;21.77;64.18
80198;BME280;69517;52.030;7.106;2023-04-20T05:50:20;101036.81;;;21.86;63.81
80198;BME280;69517;52.030;7.106;2023-04-20T05:52:46;101038.03;;;21.95;63.70
80198;BME280;69517;52.030;7.106;2023-04-20T05:55:13;101046.25;;;22.03;63.39
80198;BME280;69517;52.030;7.106;2023-04-20T05:57:40;101041.53;;;22.08;63.45
80198;BME280;69517;52.030;7.106;2023-04-20T06:00:08;101041.09;;;22.14;63.51
80198;BME280;69517;52.030;7.106;2023-04-20T06:02:35;101045.97;;;22.20;63.56
80198;BME280;69517;52.030;7.106;2023-04-20T06:05:01;101045.00;;;22.21;63.51
80198;BME280;69517;52.030;7.106;2023-04-20T06:07:28;101046.81;;;22.21;63.18
80198;BME280;69517;52.030;7.106;2023-04-20T06:09:54;101042.28;;;22.23;62.96
80198;BME280;69517;52.030;7.106;2023-04-20T06:12:21;101047.03;;;22.31;63.45
80198;BME280;69517;52.030;7.106;2023-04-20T06:14:48;101052.00;;;22.35;63.34
80198;BME280;69517;52.030;7.106;2023-04-20T06:17:15;101048.31;;;22.38;63.62
80198;BME280;69517;52.030;7.106;2023-04-20T06:19:41;101041.88;;;22.42;63.69
80198;BME280;69517;52.030;7.106;2023-04-20T06:22:07;101052.19;;;22.45;63.67
80198;BME280;69517;52.030;7.106;2023-04-20T06:24:34;101047.75;;;22.45;64.05
80198;BME280;69517;52.030;7.106;2023-04-20T06:27:01;101047.66;;;22.47;64.08
80198;BME280;69517;52.030;7.106;2023-04-20T06:29:27;101055.56;;;22.47;64.01
80198;BME280;69517;52.030;7.106;2023-04-20T06:31:55;101051.75;;;22.51;64.10
80198;BME280;69517;52.030;7.106;2023-04-20T06:34:21;101050.53;;;22.44;64.15
80198;BME280;69517;52.030;7.106;2023-04-20T06:36:48;101042.81;;;22.41;63.89
80198;BME280;69517;52.030;7.106;2023-04-20T06:39:14;101046.63;;;22.37;63.69
80198;BME280;69517;52.030;7.106;2023-04-20T06:41:41;101043.91;;;22.38;63.76
80198;BME280;69517;52.030;7.106;2023-04-20T06:44:07;101048.09;;;22.41;63.79
80198;BME280;69517;52.030;7.106;2023-04-20T06:46:33;101045.03;;;22.34;63.56
80198;BME280;69517;52.030;7.106;2023-04-20T06:49:01;101044.50;;;22.29;63.59
80198;BME280;69517;52.030;7.106;2023-04-20T06:51:27;101044.81;;;22.24;63.84
80198;BME280;69517;52.030;7.106;2023-04-20T06:53:54;101040.50;;;22.23;63.64
80198;BME280;69517;52.030;7.106;2023-04-20T06:56:20;101036.16;;;22.22;63.68
80198;BME280;69517;52.030;7.106;2023-04-20T06:58:47;101046.09;;;22.19;63.73
80198;BME280;69517;52.030;7.106;2023-04-20T07:01:13;101041.53;;;22.21;63.85
80198;BME280;69517;52.030;7.106;2023-04-20T07:03:39;101039.97;;;22.18;63.89
80198;BME280;69517;52.030;7.106;2023-04-20T07:06:07;101046.09;;;22.19;63.97
80198;BME280;69517;52.030;7.106;2023-04-20T07:08:35;101046.09;;;22.19;63.82
80198;BME280;69517;52.030;7.106;2023-04-20T07:11:01;101037.44;;;22.17;63.92
80198;BME280;69517;52.030;7.106;2023-04-20T07:13:29;101039.31;;;22.15;64.01
80198;BME280;69517;52.030;7.106;2023-04-20T07:15:55;101035.84;;;22.14;64.17
80198;BME280;69517;52.030;7.106;2023-04-20T07:18:21;101040.28;;;22.14;64.12
80198;BME280;69517;52.030;7.106;2023-04-20T07:20:47;101034.28;;;22.12;64.25
80198;BME280;69517;52.030;7.106;2023-04-20T07:23:15;101028.66;;;22.04;64.15
80198;BME280;69517;52.030;7.106;2023-04-20T07:25:41;101026.25;;;22.01;64.17
80198;BME280;69517;52.030;7.106;2023-04-20T07:28:08;101030.47;;;22.03;64.32
80198;BME280;69517;52.030;7.106;2023-04-20T07:30:34;101032.06;;;22.06;64.12
80198;BME280;69517;52.030;7.106;2023-04-20T07:33:00;101026.25;;;22.01;64.36
80198;BME280;69517;52.030;7.106;2023-04-20T07:35:26;101021.84;;;22.01;63.80
80198;BME280;69517;52.030;7.106;2023-04-20T07:37:53;101026.03;;;22.04;64.13
80198;BME280;69517;52.030;7.106;2023-04-20T07:40:20;101018.97;;;22.04;63.95
80198;BME280;69517;52.030;7.106;2023-04-20T07:42:47;101023.72;;;21.99;64.24
80198;BME280;69517;52.030;7.106;2023-04-20T07:45:13;101026.81;;;21.92;64.51
80198;BME280;69517;52.030;7.106;2023-04-20T07:47:39;101021.19;;;21.98;63.95
80198;BME280;69517;52.030;7.106;2023-04-20T07:50:08;101024.09;;;21.93;64.45
80198;BME280;69517;52.030;7.106;2023-04-20T07:52:34;101026.81;;;21.92;64.27
80198;BME280;69517;52.030;7.106;2023-04-20T07:55:00;101032.31;;;21.89;63.28
80198;BME280;69517;52.030;7.106;2023-04-20T07:57:28;101031.13;;;21.80;61.94
80198;BME280;69517;52.030;7.106;2023-04-20T07:59:54;101029.66;;;21.76;60.57
80198;BME280;69517;52.030;7.106;2023-04-20T08:02:20;101016.13;;;21.68;59.65
80198;BME280;69517;52.030;7.106;2023-04-20T08:04:47;101017.91;;;21.67;59.78
80198;BME280;69517;52.030;7.106;2023-04-20T08:07:13;101022.56;;;21.64;58.93
80198;BME280;69517;52.030;7.106;2023-04-20T08:09:40;101027.41;;;21.70;60.20
80198;BME280;69517;52.030;7.106;2023-04-20T08:12:06;101019.84;;;21.78;60.74
80198;BME280;69517;52.030;7.106;2023-04-20T08:14:34;101023.03;;;21.83;60.38
80198;BME280;69517;52.030;7.106;2023-04-20T08:17:02;101025.50;;;21.72;60.24
80198;BME280;69517;52.030;7.106;2023-04-20T08:19:28;101023.00;;;21.70;60.08
80198;BME280;69517;52.030;7.106;2023-04-20T08:21:54;101027.72;;;21.78;59.64
80198;BME280;69517;52.030;7.106;2023-04-20T08:24:20;101028.56;;;21.78;59.80
80198;BME280;69517;52.030;7.106;2023-04-20T08:26:47;101031.88;;;21.82;60.28
80198;BME280;69517;52.030;7.106;2023-04-20T08:29:13;101035.53;;;21.79;59.56
80198;BME280;69517;52.030;7.106;2023-04-20T08:31:41;101026.47;;;21.71;59.72
80198;BME280;69517;52.030;7.106;2023-04-20T08:34:07;101022.59;;;21.76;59.26
80198;BME280;69517;52.030;7.106;2023-04-20T08:36:33;101016.03;;;21.69;59.10
80198;BME280;69517;52.030;7.106;2023-04-20T08:39:04;101011.72;;;21.68;59.25
80198;BME280;69517;52.030;7.106;2023-04-20T08:41:31;101016.25;;;21.79;59.66
80198;BME280;69517;52.030;7.106;2023-04-20T08:43:57;101008.47;;;21.77;59.72
80198;BME280;69517;52.030;7.106;2023-04-20T08:46:24;101010.78;;;21.69;60.14
80198;BME280;69517;52.030;7.106;2023-04-20T08:48:52;101012.06;;;21.76;59.44
80198;BME280;69517;52.030;7.106;2023-04-20T08:51:19;101021.53;;;21.79;59.75
80198;BME280;69517;52.030;7.106;2023-04-20T08:53:46;101010.38;;;21.75;59.91
80198;BME280;69517;52.030;7.106;2023-04-20T08:56:12;101005.56;;;21.82;59.72
80198;BME280;69517;52.030;7.106;2023-04-20T08:58:38;101004.28;;;21.88;59.88
80198;BME280;69517;52.030;7.106;2023-04-20T09:01:06;101002.59;;;21.86;59.59
80198;BME280;69517;52.030;7.106;2023-04-20T09:03:33;101010.41;;;21.88;59.76
80198;BME280;69517;52.030;7.106;2023-04-20T09:06:01;101005.84;;;21.90;59.83
80198;BME280;69517;52.030;7.106;2023-04-20T09:08:33;101012.09;;;21.89;60.28
80198;BME280;69517;52.030;7.106;2023-04-20T09:11:00;101000.28;;;21.82;60.04
80198;BME280;69517;52.030;7.106;2023-04-20T09:13:26;100996.06;;;21.79;59.70
80198;BME280;69517;52.030;7.106;2023-04-20T09:15:53;100992.91;;;21.74;59.06
80198;BME280;69517;52.030;7.106;2023-04-20T09:18:19;100992.78;;;21.76;59.93
80198;BME280;69517;52.030;7.106;2023-04-20T09:20:47;100987.81;;;21.71;60.00
80198;BME280;69517;52.030;7.106;2023-04-20T09:23:16;100991.28;;;21.72;59.92
80198;BME280;69517;52.030;7.106;2023-04-20T09:25:43;100997.31;;;21.74;59.98
80198;BME280;69517;52.030;7.106;2023-04-20T09:28:10;100992.78;;;21.76;59.68
80198;BME280;69517;52.030;7.106;2023-04-20T09:30:38;100990.59;;;21.82;59.81
80198;BME280;69517;52.030;7.106;2023-04-20T09:33:04;100988.25;;;21.78;60.25
80198;BME280;69517;52.030;7.106;2023-04-20T09:35:32;100990.78;;;21.79;60.43
80198;BME280;69517;52.030;7.106;2023-04-20T09:37:58;100993.25;;;21.82;60.32
80198;BME280;69517;52.030;7.106;2023-04-20T09:40:26;100990.38;;;21.85;60.19
80198;BME280;69517;52.030;7.106;2023-04-20T09:42:52;100995.66;;;21.85;60.32
80198;BME280;69517;52.030;7.106;2023-04-20T09:45:19;100987.66;;;21.87;60.43
80198;BME280;69517;52.030;7.106;2023-04-20T09:47:46;100988.94;;;21.94;60.32
80198;BME280;69517;52.030;7.106;2023-04-20T09:50:13;100976.91;;;21.90;60.55
80198;BME280;69517;52.030;7.106;2023-04-20T09:52:41;100973.75;;;21.85;60.01
80198;BME280;69517;52.030;7.106;2023-04-20T09:55:08;100979.84;;;21.85;58.81
80198;BME280;69517;52.030;7.106;2023-04-20T09:57:36;100978.06;;;21.86;58.29
80198;BME280;69517;52.030;7.106;2023-04-20T10:00:05;100976.28;;;21.86;58.04
80198;BME280;69517;52.030;7.106;2023-04-20T10:02:32;100974.59;;;21.85;57.75
80198;BME280;69517;52.030;7.106;2023-04-20T10:04:58;100970.50;;;21.81;58.62
80198;BME280;69517;52.030;7.106;2023-04-20T10:07:25;100968.28;;;21.88;58.77
80198;BME280;69517;52.030;7.106;2023-04-20T10:10:02;100973.13;;;21.94;58.98
80198;BME280;69517;52.030;7.106;2023-04-20T10:12:29;100973.69;;;21.99;58.96
80198;BME280;69517;52.030;7.106;2023-04-20T10:14:56;100971.69;;;22.03;59.10
80198;BME280;69517;52.030;7.106;2023-04-20T10:17:28;100969.72;;;22.06;59.89
80198;BME280;69517;52.030;7.106;2023-04-20T10:19:54;100976.53;;;22.09;60.19
80198;BME280;69517;52.030;7.106;2023-04-20T10:22:24;100979.16;;;22.09;60.63
80198;BME280;69517;52.030;7.106;2023-04-20T10:24:53;100974.75;;;22.09;60.67
80198;BME280;69517;52.030;7.106;2023-04-20T10:27:19;100972.34;;;22.06;60.96
80198;BME280;69517;52.030;7.106;2023-04-20T10:29:46;100970.22;;;22.11;61.15
80198;BME280;69517;52.030;7.106;2023-04-20T10:32:21;100979.81;;;22.12;60.98
80198;BME280;69517;52.030;7.106;2023-04-20T10:34:48;100976.34;;;22.12;61.30
80198;BME280;69517;52.030;7.106;2023-04-20T10:37:24;100972.13;;;22.09;61.41
80198;BME280;69517;52.030;7.106;2023-04-20T10:39:51;100971.16;;;22.10;61.32
80198;BME280;69517;52.030;7.106;2023-04-20T10:42:17;100982.56;;;22.11;61.32
80198;BME280;69517;52.030;7.106;2023-04-20T10:44:46;100979.06;;;22.10;61.52
80198;BME280;69517;52.030;7.106;2023-04-20T10:47:13;100974.03;;;22.07;61.56
80198;BME280;69517;52.030;7.106;2023-04-20T10:49:40;100963.50;;;22.07;61.75
80198;BME280;69517;52.030;7.106;2023-04-20T10:52:06;100973.06;;;22.08;61.63
80198;BME280;69517;52.030;7.106;2023-04-20T10:54:35;100968.63;;;22.09;61.62
80198;BME280;69517;52.030;7.106;2023-04-20T10:57:01;100967.78;;;22.08;61.63
80198;BME280;69517;52.030;7.106;2023-04-20T10:59:28;100970.22;;;22.11;61.63
80198;BME280;69517;52.030;7.106;2023-04-20T11:01:54;100967.78;;;22.08;61.56
80198;BME280;69517;52.030;7.106;2023-04-20T11:04:28;100965.06;;;22.10;61.81
80198;BME280;69517;52.030;7.106;2023-04-20T11:07:02;100964.97;;;22.11;61.87
80198;BME280;69517;52.030;7.106;2023-04-20T11:09:29;100967.50;;;22.13;61.83
80198;BME280;69517;52.030;7.106;2023-04-20T11:11:57;100952.53;;;22.13;61.77
80198;BME280;69517;52.030;7.106;2023-04-20T11:14:26;100954.19;;;22.14;61.72
80198;BME280;69517;52.030;7.106;2023-04-20T11:16:52;100947.28;;;22.13;61.89
80198;BME280;69517;52.030;7.106;2023-04-20T11:19:22;100948.13;;;22.14;61.87
80198;BME280;69517;52.030;7.106;2023-04-20T11:21:49;100947.56;;;22.09;61.84
80198;BME280;69517;52.030;7.106;2023-04-20T11:24:19;100941.16;;;22.13;61.71
80198;BME280;69517;52.030;7.106;2023-04-20T11:26:46;100944.50;;;22.15;61.72
80198;BME280;69517;52.030;7.106;2023-04-20T11:29:25;100942.84;;;22.14;61.78
80198;BME280;69517;52.030;7.106;2023-04-20T11:31:51;100928.84;;;22.13;61.81
80198;BME280;69517;52.030;7.106;2023-04-20T11:34:18;100931.47;;;22.13;61.87
80198;BME280;69517;52.030;7.106;2023-04-20T11:36:44;100927.06;;;22.14;61.82
80198;BME280;69517;52.030;7.106;2023-04-20T11:39:11;100925.97;;;22.16;61.86
80198;BME280;69517;52.030;7.106;2023-04-20T11:41:39;100923.44;;;22.15;62.09
80198;BME280;69517;52.030;7.106;2023-04-20T11:44:06;100930.41;;;22.16;62.00
80198;BME280;69517;52.030;7.106;2023-04-20T11:46:33;100923.34;;;22.16;62.04
80198;BME280;69517;52.030;7.106;2023-04-20T11:49:00;100930.41;;;22.16;61.98
80198;BME280;69517;52.030;7.106;2023-04-20T11:51:28;100919.97;;;22.14;62.27
80198;BME280;69517;52.030;7.106;2023-04-20T11:53:55;100921.66;;;22.15;62.22
80198;BME280;69517;52.030;7.106;2023-04-20T11:56:21;100935.66;;;22.16;62.26
80198;BME280;69517;52.030;7.106;2023-04-20T11:58:49;100927.78;;;22.16;62.14
80198;BME280;69517;52.030;7.106;2023-04-20T12:01:15;100929.56;;;22.15;62.14
80198;BME280;69517;52.030;7.106;2023-04-20T12:03:42;100927.88;;;22.14;62.18
80198;BME280;69517;52.030;7.106;2023-04-20T12:06:08;100934.81;;;22.15;62.18
80198;BME280;69517;52.030;7.106;2023-04-20T12:08:35;100937.47;;;22.15;62.23
80198;BME280;69517;52.030;7.106;2023-04-20T12:11:01;100931.25;;;22.16;62.15
80198;BME280;69517;52.030;7.106;2023-04-20T12:13:27;100932.09;;;22.17;62.05
80198;BME280;69517;52.030;7.106;2023-04-20T12:15:55;100932.09;;;22.17;62.25
80198;BME280;69517;52.030;7.106;2023-04-20T12:18:21;100936.41;;;22.18;62.11
80198;BME280;69517;52.030;7.106;2023-04-20T12:20:48;100939.06;;;22.18;62.17
80198;BME280;69517;52.030;7.106;2023-04-20T12:23:15;100946.00;;;22.19;62.18
80198;BME280;69517;52.030;7.106;2023-04-20T12:25:42;100935.34;;;22.20;62.26
80198;BME280;69517;52.030;7.106;2023-04-20T12:28:08;100930.22;;;22.19;62.29
80198;BME280;69517;52.030;7.106;2023-04-20T12:30:34;100929.38;;;22.18;62.42
80198;BME280;69517;52.030;7.106;2023-04-20T12:33:02;100926.81;;;22.17;62.31
80198;BME280;69517;52.030;7.106;2023-04-20T12:35:28;100931.34;;;22.15;62.21
80198;BME280;69517;52.030;7.106;2023-04-20T12:37:55;100926.22;;;22.13;62.24
80198;BME280;69517;52.030;7.106;2023-04-20T12:40:21;100921.78;;;22.14;61.77
80198;BME280;69517;52.030;7.106;2023-04-20T12:42:47;100934.81;;;22.15;61.94
80198;BME280;69517;52.030;7.106;2023-04-20T12:45:14;100933.13;;;22.14;61.92
80198;BME280;69517;52.030;7.106;2023-04-20T12:47:40;100934.81;;;22.15;61.86